sensor_id;sensor_type;location;lat;lon;timestamp;P1;durP1;ratioP1;P2;durP2;ratioP2
75377;SDS011;63959;51.960;5.886;2023-05-07T00:01:34;11.95;;;8.57;;
75377;SDS011;63959;51.960;5.886;2023-05-07T00:04:03;9.30;;;5.85;;
75377;SDS011;63959;51.960;5.886;2023-05-07T00:06:33;11.82;;;8.43;;
75377;SDS011;63959;51.960;5.886;2023-05-07T00:09:02;13.52;;;8.90;;
75377;SDS011;63959;51.960;5.886;2023-05-07T00:11:31;10.02;;;7.20;;
75377;SDS011;63959;51.960;5.886;2023-05-07T00:13:59;9.73;;;5.45;;
75377;SDS011;63959;51.960;5.886;2023-05-07T00:16:28;10.55;;;7.32;;
75377;SDS011;63959;51.960;5.886;2023-05-07T00:18:59;10.15;;;6.40;;
75377;SDS011;63959;51.960;5.886;2023-05-07T00:21:28;10.73;;;6.95;;
75377;SDS011;63959;51.960;5.886;2023-05-07T00:23:59;11.10;;;7.32;;
75377;SDS011;63959;51.960;5.886;2023-05-07T00:26:27;9.52;;;6.80;;
75377;SDS011;63959;51.960;5.886;2023-05-07T00:28:56;13.32;;;7.47;;
75377;SDS011;63959;51.960;5.886;2023-05-07T00:31:25;14.50;;;8.90;;
75377;SDS011;63959;51.960;5.886;2023-05-07T00:33:53;12.25;;;7.25;;
75377;SDS011;63959;51.960;5.886;2023-05-07T00:36:25;10.35;;;5.75;;
75377;SDS011;63959;51.960;5.886;2023-05-07T00:38:56;10.13;;;7.00;;
75377;SDS011;63959;51.960;5.886;2023-05-07T00:41:25;10.90;;;6.95;;
75377;SDS011;63959;51.960;5.886;2023-05-07T00:43:54;10.07;;;7.82;;
75377;SDS011;63959;51.960;5.886;2023-05-07T00:46:23;9.88;;;6.53;;
75377;SDS011;63959;51.960;5.886;2023-05-07T00:48:52;10.65;;;7.15;;
75377;SDS011;63959;51.960;5.886;2023-05-07T00:51:20;11.10;;;7.97;;
75377;SDS011;63959;51.960;5.886;2023-05-07T00:53:52;15.50;;;10.10;;
75377;SDS011;63959;51.960;5.886;2023-05-07T00:56:21;11.73;;;7.43;;
75377;SDS011;63959;51.960;5.886;2023-05-07T00:58:50;12.73;;;8.50;;
75377;SDS011;63959;51.960;5.886;2023-05-07T01:01:18;11.93;;;7.80;;
75377;SDS011;63959;51.960;5.886;2023-05-07T01:03:47;12.15;;;7.85;;
75377;SDS011;63959;51.960;5.886;2023-05-07T01:06:16;14.50;;;7.63;;
75377;SDS011;63959;51.960;5.886;2023-05-07T01:08:45;11.00;;;7.85;;
75377;SDS011;63959;51.960;5.886;2023-05-07T01:11:18;13.15;;;9.13;;
75377;SDS011;63959;51.960;5.886;2023-05-07T01:13:47;12.20;;;8.68;;
75377;SDS011;63959;51.960;5.886;2023-05-07T01:16:17;13.25;;;7.80;;
75377;SDS011;63959;51.960;5.886;2023-05-07T01:18:47;14.80;;;10.45;;
75377;SDS011;63959;51.960;5.886;2023-05-07T01:21:16;14.68;;;10.52;;
75377;SDS011;63959;51.960;5.886;2023-05-07T01:23:48;13.38;;;8.82;;
75377;SDS011;63959;51.960;5.886;2023-05-07T01:26:17;13.02;;;9.10;;
75377;SDS011;63959;51.960;5.886;2023-05-07T01:28:47;15.38;;;10.40;;
75377;SDS011;63959;51.960;5.886;2023-05-07T01:31:16;13.27;;;8.48;;
75377;SDS011;63959;51.960;5.886;2023-05-07T01:33:45;10.73;;;7.93;;
75377;SDS011;63959;51.960;5.886;2023-05-07T01:36:16;14.07;;;8.35;;
75377;SDS011;63959;51.960;5.886;2023-05-07T01:38:45;15.68;;;10.38;;
75377;SDS011;63959;51.960;5.886;2023-05-07T01:41:17;15.18;;;9.23;;
75377;SDS011;63959;51.960;5.886;2023-05-07T01:43:46;16.52;;;10.45;;
75377;SDS011;63959;51.960;5.886;2023-05-07T01:46:15;14.25;;;9.05;;
75377;SDS011;63959;51.960;5.886;2023-05-07T01:48:44;13.30;;;9.60;;
75377;SDS011;63959;51.960;5.886;2023-05-07T01:51:13;17.00;;;11.95;;
75377;SDS011;63959;51.960;5.886;2023-05-07T01:53:42;16.70;;;11.70;;
75377;SDS011;63959;51.960;5.886;2023-05-07T01:56:13;16.50;;;11.40;;
75377;SDS011;63959;51.960;5.886;2023-05-07T01:58:45;18.50;;;11.68;;
75377;SDS011;63959;51.960;5.886;2023-05-07T02:01:14;13.25;;;9.50;;
75377;SDS011;63959;51.960;5.886;2023-05-07T02:03:43;15.88;;;10.98;;
75377;SDS011;63959;51.960;5.886;2023-05-07T02:06:19;18.13;;;12.68;;
75377;SDS011;63959;51.960;5.886;2023-05-07T02:08:48;17.17;;;13.90;;
75377;SDS011;63959;51.960;5.886;2023-05-07T02:11:17;13.73;;;9.23;;
75377;SDS011;63959;51.960;5.886;2023-05-07T02:13:49;19.92;;;13.68;;
75377;SDS011;63959;51.960;5.886;2023-05-07T02:16:19;19.58;;;15.30;;
75377;SDS011;63959;51.960;5.886;2023-05-07T02:18:49;19.13;;;12.50;;
75377;SDS011;63959;51.960;5.886;2023-05-07T02:21:17;18.45;;;12.75;;
75377;SDS011;63959;51.960;5.886;2023-05-07T02:23:46;18.13;;;13.40;;
75377;SDS011;63959;51.960;5.886;2023-05-07T02:26:15;15.43;;;9.90;;
75377;SDS011;63959;51.960;5.886;2023-05-07T02:28:43;18.92;;;13.57;;
75377;SDS011;63959;51.960;5.886;2023-05-07T02:31:15;15.32;;;10.15;;
75377;SDS011;63959;51.960;5.886;2023-05-07T02:33:44;19.77;;;13.93;;
75377;SDS011;63959;51.960;5.886;2023-05-07T02:36:14;20.92;;;14.98;;
75377;SDS011;63959;51.960;5.886;2023-05-07T02:38:49;17.10;;;11.68;;
75377;SDS011;63959;51.960;5.886;2023-05-07T02:41:18;20.95;;;15.18;;
75377;SDS011;63959;51.960;5.886;2023-05-07T02:43:47;19.23;;;14.38;;
75377;SDS011;63959;51.960;5.886;2023-05-07T02:46:18;18.17;;;11.32;;
75377;SDS011;63959;51.960;5.886;2023-05-07T02:48:53;19.48;;;14.25;;
75377;SDS011;63959;51.960;5.886;2023-05-07T02:51:22;17.85;;;12.10;;
75377;SDS011;63959;51.960;5.886;2023-05-07T02:53:52;18.00;;;12.45;;
75377;SDS011;63959;51.960;5.886;2023-05-07T02:56:21;22.73;;;15.90;;
75377;SDS011;63959;51.960;5.886;2023-05-07T02:58:49;17.98;;;12.63;;
75377;SDS011;63959;51.960;5.886;2023-05-07T03:01:23;18.10;;;12.45;;
75377;SDS011;63959;51.960;5.886;2023-05-07T03:04:04;18.73;;;13.93;;
75377;SDS011;63959;51.960;5.886;2023-05-07T03:06:32;19.25;;;13.07;;
75377;SDS011;63959;51.960;5.886;2023-05-07T03:09:01;17.65;;;12.55;;
75377;SDS011;63959;51.960;5.886;2023-05-07T03:11:32;18.05;;;12.38;;
75377;SDS011;63959;51.960;5.886;2023-05-07T03:14:01;12.88;;;8.93;;
75377;SDS011;63959;51.960;5.886;2023-05-07T03:16:33;21.48;;;14.45;;
75377;SDS011;63959;51.960;5.886;2023-05-07T03:19:02;19.08;;;13.30;;
75377;SDS011;63959;51.960;5.886;2023-05-07T03:21:31;19.48;;;13.43;;
75377;SDS011;63959;51.960;5.886;2023-05-07T03:24:00;16.48;;;11.55;;
75377;SDS011;63959;51.960;5.886;2023-05-07T03:26:28;21.00;;;15.20;;
75377;SDS011;63959;51.960;5.886;2023-05-07T03:28:57;18.58;;;13.00;;
75377;SDS011;63959;51.960;5.886;2023-05-07T03:31:26;18.88;;;13.60;;
75377;SDS011;63959;51.960;5.886;2023-05-07T03:33:57;16.15;;;10.88;;
75377;SDS011;63959;51.960;5.886;2023-05-07T03:36:26;16.25;;;12.10;;
75377;SDS011;63959;51.960;5.886;2023-05-07T03:38:56;14.43;;;10.32;;
75377;SDS011;63959;51.960;5.886;2023-05-07T03:41:32;18.00;;;13.18;;
75377;SDS011;63959;51.960;5.886;2023-05-07T03:44:01;16.98;;;11.07;;
75377;SDS011;63959;51.960;5.886;2023-05-07T03:46:30;21.05;;;14.32;;
75377;SDS011;63959;51.960;5.886;2023-05-07T03:49:01;19.05;;;12.55;;
75377;SDS011;63959;51.960;5.886;2023-05-07T03:51:30;14.75;;;10.45;;
75377;SDS011;63959;51.960;5.886;2023-05-07T03:53:59;17.67;;;12.52;;
75377;SDS011;63959;51.960;5.886;2023-05-07T03:56:30;15.98;;;11.43;;
75377;SDS011;63959;51.960;5.886;2023-05-07T03:58:59;24.05;;;16.55;;
75377;SDS011;63959;51.960;5.886;2023-05-07T04:01:28;21.38;;;14.63;;
75377;SDS011;63959;51.960;5.886;2023-05-07T04:03:57;23.00;;;15.73;;
75377;SDS011;63959;51.960;5.886;2023-05-07T04:06:28;17.73;;;12.32;;
75377;SDS011;63959;51.960;5.886;2023-05-07T04:08:58;18.15;;;12.75;;
75377;SDS011;63959;51.960;5.886;2023-05-07T04:11:27;14.98;;;10.35;;
75377;SDS011;63959;51.960;5.886;2023-05-07T04:13:56;21.85;;;14.65;;
75377;SDS011;63959;51.960;5.886;2023-05-07T04:16:25;19.17;;;13.52;;
75377;SDS011;63959;51.960;5.886;2023-05-07T04:18:53;18.20;;;11.93;;
75377;SDS011;63959;51.960;5.886;2023-05-07T04:21:22;23.02;;;15.80;;
75377;SDS011;63959;51.960;5.886;2023-05-07T04:23:54;20.35;;;14.55;;
75377;SDS011;63959;51.960;5.886;2023-05-07T04:26:23;23.80;;;16.80;;
75377;SDS011;63959;51.960;5.886;2023-05-07T04:28:52;21.25;;;14.05;;
75377;SDS011;63959;51.960;5.886;2023-05-07T04:31:21;24.40;;;16.95;;
75377;SDS011;63959;51.960;5.886;2023-05-07T04:33:53;34.80;;;25.85;;
75377;SDS011;63959;51.960;5.886;2023-05-07T04:36:21;29.60;;;22.70;;
75377;SDS011;63959;51.960;5.886;2023-05-07T04:39:01;28.13;;;20.25;;
75377;SDS011;63959;51.960;5.886;2023-05-07T04:41:30;31.38;;;22.90;;
75377;SDS011;63959;51.960;5.886;2023-05-07T04:43:59;21.98;;;17.08;;
75377;SDS011;63959;51.960;5.886;2023-05-07T04:46:31;27.95;;;17.65;;
75377;SDS011;63959;51.960;5.886;2023-05-07T04:49:00;19.30;;;13.70;;
75377;SDS011;63959;51.960;5.886;2023-05-07T04:51:29;22.88;;;15.23;;
75377;SDS011;63959;51.960;5.886;2023-05-07T04:54:00;20.52;;;13.23;;
75377;SDS011;63959;51.960;5.886;2023-05-07T04:56:32;17.80;;;12.57;;
75377;SDS011;63959;51.960;5.886;2023-05-07T04:59:01;20.20;;;12.95;;
75377;SDS011;63959;51.960;5.886;2023-05-07T05:01:30;24.88;;;17.17;;
75377;SDS011;63959;51.960;5.886;2023-05-07T05:03:59;22.77;;;16.55;;
75377;SDS011;63959;51.960;5.886;2023-05-07T05:06:29;25.20;;;18.13;;
75377;SDS011;63959;51.960;5.886;2023-05-07T05:09:02;20.52;;;14.57;;
75377;SDS011;63959;51.960;5.886;2023-05-07T05:11:31;21.50;;;15.50;;
75377;SDS011;63959;51.960;5.886;2023-05-07T05:13:59;16.38;;;11.55;;
75377;SDS011;63959;51.960;5.886;2023-05-07T05:16:28;18.35;;;11.70;;
75377;SDS011;63959;51.960;5.886;2023-05-07T05:18:57;17.95;;;12.20;;
75377;SDS011;63959;51.960;5.886;2023-05-07T05:21:26;24.52;;;17.92;;
75377;SDS011;63959;51.960;5.886;2023-05-07T05:26:31;19.23;;;12.70;;
75377;SDS011;63959;51.960;5.886;2023-05-07T05:29:01;16.42;;;11.40;;
75377;SDS011;63959;51.960;5.886;2023-05-07T05:31:31;24.25;;;16.60;;
75377;SDS011;63959;51.960;5.886;2023-05-07T05:34:00;21.70;;;15.50;;
75377;SDS011;63959;51.960;5.886;2023-05-07T05:36:28;17.75;;;12.55;;
75377;SDS011;63959;51.960;5.886;2023-05-07T05:38:57;20.83;;;15.30;;
75377;SDS011;63959;51.960;5.886;2023-05-07T05:41:27;17.00;;;12.20;;
75377;SDS011;63959;51.960;5.886;2023-05-07T05:43:59;20.33;;;14.35;;
75377;SDS011;63959;51.960;5.886;2023-05-07T05:46:28;20.98;;;15.10;;
75377;SDS011;63959;51.960;5.886;2023-05-07T05:48:57;23.33;;;16.65;;
75377;SDS011;63959;51.960;5.886;2023-05-07T05:51:25;25.90;;;17.08;;
75377;SDS011;63959;51.960;5.886;2023-05-07T05:53:54;21.77;;;14.88;;
75377;SDS011;63959;51.960;5.886;2023-05-07T05:56:23;25.40;;;18.33;;
75377;SDS011;63959;51.960;5.886;2023-05-07T05:58:52;24.02;;;16.40;;
75377;SDS011;63959;51.960;5.886;2023-05-07T06:01:23;21.38;;;14.85;;
75377;SDS011;63959;51.960;5.886;2023-05-07T06:03:53;18.27;;;13.23;;
75377;SDS011;63959;51.960;5.886;2023-05-07T06:06:22;22.55;;;14.38;;
75377;SDS011;63959;51.960;5.886;2023-05-07T06:08:51;21.25;;;14.93;;
75377;SDS011;63959;51.960;5.886;2023-05-07T06:11:25;21.38;;;14.50;;
75377;SDS011;63959;51.960;5.886;2023-05-07T06:13:54;21.90;;;16.27;;
75377;SDS011;63959;51.960;5.886;2023-05-07T06:16:26;18.52;;;13.60;;
75377;SDS011;63959;51.960;5.886;2023-05-07T06:18:56;21.30;;;15.32;;
75377;SDS011;63959;51.960;5.886;2023-05-07T06:21:24;25.25;;;17.42;;
75377;SDS011;63959;51.960;5.886;2023-05-07T06:23:53;22.38;;;16.48;;
75377;SDS011;63959;51.960;5.886;2023-05-07T06:26:22;22.00;;;15.90;;
75377;SDS011;63959;51.960;5.886;2023-05-07T06:28:52;21.13;;;15.13;;
75377;SDS011;63959;51.960;5.886;2023-05-07T06:31:21;20.60;;;15.25;;
75377;SDS011;63959;51.960;5.886;2023-05-07T06:34:00;23.13;;;15.70;;
75377;SDS011;63959;51.960;5.886;2023-05-07T06:36:35;21.42;;;14.88;;
75377;SDS011;63959;51.960;5.886;2023-05-07T06:39:30;22.50;;;15.77;;
75377;SDS011;63959;51.960;5.886;2023-05-07T06:41:59;15.68;;;10.57;;
75377;SDS011;63959;51.960;5.886;2023-05-07T06:44:31;20.98;;;15.35;;
75377;SDS011;63959;51.960;5.886;2023-05-07T06:49:42;18.90;;;12.82;;
75377;SDS011;63959;51.960;5.886;2023-05-07T06:52:14;22.30;;;14.57;;
75377;SDS011;63959;51.960;5.886;2023-05-07T06:54:44;25.88;;;18.52;;
75377;SDS011;63959;51.960;5.886;2023-05-07T06:57:15;26.30;;;18.27;;
75377;SDS011;63959;51.960;5.886;2023-05-07T06:59:45;20.92;;;15.57;;
75377;SDS011;63959;51.960;5.886;2023-05-07T07:02:13;23.77;;;16.63;;
75377;SDS011;63959;51.960;5.886;2023-05-07T07:04:45;23.83;;;17.50;;
75377;SDS011;63959;51.960;5.886;2023-05-07T07:07:14;24.90;;;19.02;;
75377;SDS011;63959;51.960;5.886;2023-05-07T07:09:45;22.55;;;16.60;;
75377;SDS011;63959;51.960;5.886;2023-05-07T07:12:17;27.80;;;19.65;;
75377;SDS011;63959;51.960;5.886;2023-05-07T07:14:46;18.92;;;14.70;;
75377;SDS011;63959;51.960;5.886;2023-05-07T07:17:15;26.35;;;19.35;;
75377;SDS011;63959;51.960;5.886;2023-05-07T07:19:47;25.95;;;17.75;;
75377;SDS011;63959;51.960;5.886;2023-05-07T07:22:16;25.33;;;18.73;;
75377;SDS011;63959;51.960;5.886;2023-05-07T07:24:46;30.15;;;22.30;;
75377;SDS011;63959;51.960;5.886;2023-05-07T07:27:17;26.33;;;18.17;;
75377;SDS011;63959;51.960;5.886;2023-05-07T07:29:46;27.30;;;19.75;;
75377;SDS011;63959;51.960;5.886;2023-05-07T07:32:15;28.38;;;20.40;;
75377;SDS011;63959;51.960;5.886;2023-05-07T07:34:44;26.48;;;19.73;;
75377;SDS011;63959;51.960;5.886;2023-05-07T07:37:15;28.20;;;19.38;;
75377;SDS011;63959;51.960;5.886;2023-05-07T07:39:47;25.48;;;18.67;;
75377;SDS011;63959;51.960;5.886;2023-05-07T07:42:19;26.10;;;18.00;;
75377;SDS011;63959;51.960;5.886;2023-05-07T07:44:48;32.15;;;21.70;;
75377;SDS011;63959;51.960;5.886;2023-05-07T07:47:20;25.23;;;17.30;;
75377;SDS011;63959;51.960;5.886;2023-05-07T07:49:50;26.33;;;19.42;;
75377;SDS011;63959;51.960;5.886;2023-05-07T07:52:22;28.63;;;19.15;;
75377;SDS011;63959;51.960;5.886;2023-05-07T07:54:50;28.48;;;20.27;;
75377;SDS011;63959;51.960;5.886;2023-05-07T07:57:20;25.65;;;17.00;;
75377;SDS011;63959;51.960;5.886;2023-05-07T07:59:49;28.38;;;18.55;;
75377;SDS011;63959;51.960;5.886;2023-05-07T08:02:19;20.38;;;14.90;;
75377;SDS011;63959;51.960;5.886;2023-05-07T08:04:49;28.08;;;19.80;;
75377;SDS011;63959;51.960;5.886;2023-05-07T08:07:18;30.50;;;20.92;;
75377;SDS011;63959;51.960;5.886;2023-05-07T08:09:51;31.67;;;21.85;;
75377;SDS011;63959;51.960;5.886;2023-05-07T08:12:22;32.38;;;19.90;;
75377;SDS011;63959;51.960;5.886;2023-05-07T08:14:51;27.77;;;19.38;;
75377;SDS011;63959;51.960;5.886;2023-05-07T08:17:20;23.88;;;14.05;;
75377;SDS011;63959;51.960;5.886;2023-05-07T08:19:49;28.30;;;20.23;;
75377;SDS011;63959;51.960;5.886;2023-05-07T08:22:18;28.42;;;17.92;;
75377;SDS011;63959;51.960;5.886;2023-05-07T08:24:52;24.05;;;16.67;;
75377;SDS011;63959;51.960;5.886;2023-05-07T08:27:21;22.85;;;15.88;;
75377;SDS011;63959;51.960;5.886;2023-05-07T08:29:50;23.70;;;15.82;;
75377;SDS011;63959;51.960;5.886;2023-05-07T08:32:20;25.52;;;18.38;;
75377;SDS011;63959;51.960;5.886;2023-05-07T08:34:49;24.65;;;17.27;;
75377;SDS011;63959;51.960;5.886;2023-05-07T08:37:17;28.00;;;18.15;;
75377;SDS011;63959;51.960;5.886;2023-05-07T08:39:46;22.05;;;13.30;;
75377;SDS011;63959;51.960;5.886;2023-05-07T08:42:24;24.50;;;16.08;;
75377;SDS011;63959;51.960;5.886;2023-05-07T08:44:53;28.45;;;18.88;;
75377;SDS011;63959;51.960;5.886;2023-05-07T08:47:29;27.20;;;18.13;;
75377;SDS011;63959;51.960;5.886;2023-05-07T08:50:00;26.67;;;18.60;;
75377;SDS011;63959;51.960;5.886;2023-05-07T08:52:29;27.83;;;18.95;;
75377;SDS011;63959;51.960;5.886;2023-05-07T08:54:58;20.55;;;13.73;;
75377;SDS011;63959;51.960;5.886;2023-05-07T08:57:30;30.50;;;20.58;;
75377;SDS011;63959;51.960;5.886;2023-05-07T08:59:59;29.48;;;17.98;;
75377;SDS011;63959;51.960;5.886;2023-05-07T09:02:28;31.20;;;18.65;;
75377;SDS011;63959;51.960;5.886;2023-05-07T09:04:56;23.13;;;14.60;;
75377;SDS011;63959;51.960;5.886;2023-05-07T09:07:26;28.35;;;17.02;;
75377;SDS011;63959;51.960;5.886;2023-05-07T09:09:55;24.63;;;15.25;;
75377;SDS011;63959;51.960;5.886;2023-05-07T09:12:24;22.10;;;14.85;;
75377;SDS011;63959;51.960;5.886;2023-05-07T09:14:56;23.42;;;16.20;;
75377;SDS011;63959;51.960;5.886;2023-05-07T09:17:25;22.33;;;16.05;;
75377;SDS011;63959;51.960;5.886;2023-05-07T09:19:54;22.95;;;15.68;;
75377;SDS011;63959;51.960;5.886;2023-05-07T09:22:23;24.38;;;16.45;;
75377;SDS011;63959;51.960;5.886;2023-05-07T09:24:59;26.23;;;16.90;;
75377;SDS011;63959;51.960;5.886;2023-05-07T09:27:29;21.65;;;14.18;;
75377;SDS011;63959;51.960;5.886;2023-05-07T09:30:01;23.73;;;16.83;;
75377;SDS011;63959;51.960;5.886;2023-05-07T09:32:34;25.85;;;18.77;;
75377;SDS011;63959;51.960;5.886;2023-05-07T09:35:04;23.75;;;16.23;;
75377;SDS011;63959;51.960;5.886;2023-05-07T09:37:33;21.45;;;15.15;;
75377;SDS011;63959;51.960;5.886;2023-05-07T09:40:03;19.90;;;12.98;;
75377;SDS011;63959;51.960;5.886;2023-05-07T09:42:32;18.55;;;12.68;;
75377;SDS011;63959;51.960;5.886;2023-05-07T09:45:07;19.52;;;15.00;;
75377;SDS011;63959;51.960;5.886;2023-05-07T09:47:38;22.92;;;16.05;;
75377;SDS011;63959;51.960;5.886;2023-05-07T09:50:08;22.05;;;14.27;;
75377;SDS011;63959;51.960;5.886;2023-05-07T09:52:38;23.30;;;16.20;;
75377;SDS011;63959;51.960;5.886;2023-05-07T09:55:08;22.98;;;16.13;;
75377;SDS011;63959;51.960;5.886;2023-05-07T09:57:38;24.02;;;15.98;;
75377;SDS011;63959;51.960;5.886;2023-05-07T10:00:11;23.90;;;16.30;;
75377;SDS011;63959;51.960;5.886;2023-05-07T10:02:46;22.60;;;15.35;;
75377;SDS011;63959;51.960;5.886;2023-05-07T10:05:21;19.33;;;14.60;;
75377;SDS011;63959;51.960;5.886;2023-05-07T10:07:52;22.10;;;16.52;;
75377;SDS011;63959;51.960;5.886;2023-05-07T10:10:23;24.02;;;15.93;;
75377;SDS011;63959;51.960;5.886;2023-05-07T10:12:52;23.35;;;17.08;;
75377;SDS011;63959;51.960;5.886;2023-05-07T10:15:31;24.45;;;16.92;;
75377;SDS011;63959;51.960;5.886;2023-05-07T10:18:02;23.20;;;15.95;;
75377;SDS011;63959;51.960;5.886;2023-05-07T10:20:31;19.30;;;14.05;;
75377;SDS011;63959;51.960;5.886;2023-05-07T10:23:02;20.30;;;15.13;;
75377;SDS011;63959;51.960;5.886;2023-05-07T10:25:39;16.77;;;12.23;;
75377;SDS011;63959;51.960;5.886;2023-05-07T10:28:16;18.67;;;14.55;;
75377;SDS011;63959;51.960;5.886;2023-05-07T10:30:54;19.27;;;14.20;;
75377;SDS011;63959;51.960;5.886;2023-05-07T10:33:29;22.88;;;15.27;;
75377;SDS011;63959;51.960;5.886;2023-05-07T10:36:00;21.60;;;14.43;;
75377;SDS011;63959;51.960;5.886;2023-05-07T10:38:31;18.05;;;13.90;;
75377;SDS011;63959;51.960;5.886;2023-05-07T10:41:20;17.35;;;12.73;;
75377;SDS011;63959;51.960;5.886;2023-05-07T10:43:50;19.30;;;13.50;;
75377;SDS011;63959;51.960;5.886;2023-05-07T10:46:27;19.42;;;15.02;;
75377;SDS011;63959;51.960;5.886;2023-05-07T10:49:11;18.65;;;13.60;;
75377;SDS011;63959;51.960;5.886;2023-05-07T10:51:47;18.95;;;14.88;;
75377;SDS011;63959;51.960;5.886;2023-05-07T10:54:36;17.58;;;13.05;;
75377;SDS011;63959;51.960;5.886;2023-05-07T10:59:58;17.48;;;13.10;;
75377;SDS011;63959;51.960;5.886;2023-05-07T11:05:22;15.50;;;11.50;;
75377;SDS011;63959;51.960;5.886;2023-05-07T11:08:05;19.65;;;13.95;;
75377;SDS011;63959;51.960;5.886;2023-05-07T11:10:50;17.83;;;13.60;;
75377;SDS011;63959;51.960;5.886;2023-05-07T11:13:42;19.33;;;12.82;;
75377;SDS011;63959;51.960;5.886;2023-05-07T11:16:23;18.50;;;14.30;;
75377;SDS011;63959;51.960;5.886;2023-05-07T11:19:04;20.50;;;14.02;;
75377;SDS011;63959;51.960;5.886;2023-05-07T11:21:41;17.52;;;11.50;;
75377;SDS011;63959;51.960;5.886;2023-05-07T11:24:26;19.90;;;14.27;;
75377;SDS011;63959;51.960;5.886;2023-05-07T11:26:59;15.68;;;12.10;;
75377;SDS011;63959;51.960;5.886;2023-05-07T11:29:31;19.70;;;13.98;;
75377;SDS011;63959;51.960;5.886;2023-05-07T11:32:05;19.95;;;13.65;;
75377;SDS011;63959;51.960;5.886;2023-05-07T11:34:40;15.80;;;11.85;;
75377;SDS011;63959;51.960;5.886;2023-05-07T11:37:12;14.80;;;10.35;;
75377;SDS011;63959;51.960;5.886;2023-05-07T11:39:51;18.45;;;13.80;;
75377;SDS011;63959;51.960;5.886;2023-05-07T11:42:28;15.18;;;11.35;;
75377;SDS011;63959;51.960;5.886;2023-05-07T11:44:56;17.00;;;11.98;;
75377;SDS011;63959;51.960;5.886;2023-05-07T11:47:25;16.05;;;12.05;;
75377;SDS011;63959;51.960;5.886;2023-05-07T11:49:54;20.33;;;14.90;;
75377;SDS011;63959;51.960;5.886;2023-05-07T11:55:01;13.75;;;10.95;;
75377;SDS011;63959;51.960;5.886;2023-05-07T11:57:30;16.95;;;12.85;;
75377;SDS011;63959;51.960;5.886;2023-05-07T12:00:00;15.00;;;11.40;;
75377;SDS011;63959;51.960;5.886;2023-05-07T12:02:38;17.00;;;13.13;;
75377;SDS011;63959;51.960;5.886;2023-05-07T12:05:10;16.73;;;12.82;;
75377;SDS011;63959;51.960;5.886;2023-05-07T12:07:38;14.48;;;11.00;;
75377;SDS011;63959;51.960;5.886;2023-05-07T12:10:11;17.00;;;12.45;;
75377;SDS011;63959;51.960;5.886;2023-05-07T12:12:40;17.42;;;12.48;;
75377;SDS011;63959;51.960;5.886;2023-05-07T12:15:11;16.15;;;11.98;;
75377;SDS011;63959;51.960;5.886;2023-05-07T12:17:41;12.40;;;9.63;;
75377;SDS011;63959;51.960;5.886;2023-05-07T12:20:11;19.13;;;12.77;;
75377;SDS011;63959;51.960;5.886;2023-05-07T12:22:41;14.65;;;10.30;;
75377;SDS011;63959;51.960;5.886;2023-05-07T12:25:12;12.68;;;9.60;;
75377;SDS011;63959;51.960;5.886;2023-05-07T12:27:50;17.90;;;12.98;;
75377;SDS011;63959;51.960;5.886;2023-05-07T12:30:19;12.73;;;9.23;;
75377;SDS011;63959;51.960;5.886;2023-05-07T12:32:51;13.25;;;10.48;;
75377;SDS011;63959;51.960;5.886;2023-05-07T12:35:27;15.40;;;11.68;;
75377;SDS011;63959;51.960;5.886;2023-05-07T12:37:57;15.48;;;11.93;;
75377;SDS011;63959;51.960;5.886;2023-05-07T12:40:37;13.32;;;9.75;;
75377;SDS011;63959;51.960;5.886;2023-05-07T12:43:08;12.68;;;9.88;;
75377;SDS011;63959;51.960;5.886;2023-05-07T12:45:43;13.93;;;11.18;;
75377;SDS011;63959;51.960;5.886;2023-05-07T12:48:12;13.82;;;9.73;;
75377;SDS011;63959;51.960;5.886;2023-05-07T12:50:41;16.20;;;10.82;;
75377;SDS011;63959;51.960;5.886;2023-05-07T12:53:10;14.60;;;9.68;;
75377;SDS011;63959;51.960;5.886;2023-05-07T12:55:44;13.10;;;9.88;;
75377;SDS011;63959;51.960;5.886;2023-05-07T12:58:16;10.48;;;7.25;;
75377;SDS011;63959;51.960;5.886;2023-05-07T13:00:47;11.63;;;8.05;;
75377;SDS011;63959;51.960;5.886;2023-05-07T13:03:22;13.60;;;9.75;;
75377;SDS011;63959;51.960;5.886;2023-05-07T13:06:00;14.60;;;9.95;;
75377;SDS011;63959;51.960;5.886;2023-05-07T13:08:31;11.80;;;9.15;;
75377;SDS011;63959;51.960;5.886;2023-05-07T13:11:03;13.43;;;9.43;;
75377;SDS011;63959;51.960;5.886;2023-05-07T13:13:32;12.05;;;8.73;;
75377;SDS011;63959;51.960;5.886;2023-05-07T13:16:00;11.73;;;7.68;;
75377;SDS011;63959;51.960;5.886;2023-05-07T13:18:29;13.27;;;8.88;;
75377;SDS011;63959;51.960;5.886;2023-05-07T13:20:59;15.50;;;10.32;;
75377;SDS011;63959;51.960;5.886;2023-05-07T13:23:28;14.40;;;9.48;;
75377;SDS011;63959;51.960;5.886;2023-05-07T13:25:57;10.82;;;8.00;;
75377;SDS011;63959;51.960;5.886;2023-05-07T13:28:28;12.65;;;8.57;;
75377;SDS011;63959;51.960;5.886;2023-05-07T13:30:57;12.98;;;9.68;;
75377;SDS011;63959;51.960;5.886;2023-05-07T13:33:27;12.93;;;9.05;;
75377;SDS011;63959;51.960;5.886;2023-05-07T13:36:15;13.30;;;9.15;;
75377;SDS011;63959;51.960;5.886;2023-05-07T13:38:43;12.73;;;8.55;;
75377;SDS011;63959;51.960;5.886;2023-05-07T13:41:15;11.20;;;7.38;;
75377;SDS011;63959;51.960;5.886;2023-05-07T13:43:48;13.52;;;8.68;;
75377;SDS011;63959;51.960;5.886;2023-05-07T13:46:21;14.07;;;10.70;;
75377;SDS011;63959;51.960;5.886;2023-05-07T13:48:50;12.48;;;9.15;;
75377;SDS011;63959;51.960;5.886;2023-05-07T13:51:18;14.20;;;9.45;;
75377;SDS011;63959;51.960;5.886;2023-05-07T13:53:47;13.65;;;9.18;;
75377;SDS011;63959;51.960;5.886;2023-05-07T13:56:16;12.57;;;9.10;;
75377;SDS011;63959;51.960;5.886;2023-05-07T13:58:48;12.68;;;9.48;;
75377;SDS011;63959;51.960;5.886;2023-05-07T14:01:17;13.35;;;8.90;;
75377;SDS011;63959;51.960;5.886;2023-05-07T14:03:47;14.30;;;9.07;;
75377;SDS011;63959;51.960;5.886;2023-05-07T14:06:16;9.85;;;7.32;;
75377;SDS011;63959;51.960;5.886;2023-05-07T14:08:45;11.52;;;7.22;;
75377;SDS011;63959;51.960;5.886;2023-05-07T14:11:14;11.38;;;8.07;;
75377;SDS011;63959;51.960;5.886;2023-05-07T14:13:48;10.23;;;6.93;;
75377;SDS011;63959;51.960;5.886;2023-05-07T14:16:17;11.50;;;7.25;;
75377;SDS011;63959;51.960;5.886;2023-05-07T14:18:48;12.73;;;8.73;;
75377;SDS011;63959;51.960;5.886;2023-05-07T14:21:17;11.63;;;7.68;;
75377;SDS011;63959;51.960;5.886;2023-05-07T14:23:46;11.50;;;7.85;;
75377;SDS011;63959;51.960;5.886;2023-05-07T14:26:16;13.00;;;8.90;;
75377;SDS011;63959;51.960;5.886;2023-05-07T14:29:01;11.57;;;9.15;;
75377;SDS011;63959;51.960;5.886;2023-05-07T14:31:30;14.90;;;8.93;;
75377;SDS011;63959;51.960;5.886;2023-05-07T14:34:01;13.73;;;8.60;;
75377;SDS011;63959;51.960;5.886;2023-05-07T14:39:33;13.40;;;10.10;;
75377;SDS011;63959;51.960;5.886;2023-05-07T14:42:02;13.80;;;8.90;;
75377;SDS011;63959;51.960;5.886;2023-05-07T14:47:29;10.48;;;7.28;;
75377;SDS011;63959;51.960;5.886;2023-05-07T14:50:03;11.73;;;6.95;;
75377;SDS011;63959;51.960;5.886;2023-05-07T14:52:32;14.07;;;9.65;;
75377;SDS011;63959;51.960;5.886;2023-05-07T14:55:05;13.30;;;9.52;;
75377;SDS011;63959;51.960;5.886;2023-05-07T14:57:37;11.50;;;7.93;;
75377;SDS011;63959;51.960;5.886;2023-05-07T15:00:07;11.18;;;7.22;;
75377;SDS011;63959;51.960;5.886;2023-05-07T15:02:42;10.90;;;7.30;;
75377;SDS011;63959;51.960;5.886;2023-05-07T15:05:10;7.63;;;4.25;;
75377;SDS011;63959;51.960;5.886;2023-05-07T15:07:40;7.78;;;5.20;;